^^
Station Historical Data
 
Daily Summary for December 02, 2016 Units:  English    Metric   Both
« Previous Day
Next Day »
Daily Weekly Monthly Yearly Custom
  Current: High: Low: Average:
Temperature: 36.0 °F 40.2 °F 36.0 °F 37.5 °F
Dew Point: 27.8 °F 36.4 °F 27.8 °F 34.1 °F
Humidity: 72% 94% 72% 87%
Wind Speed: 3.5mph 10.4mph 1.2mph 4.1mph
Wind Gust: 3.5mph 10.4mph - -
WindNW - - West
Pressure: 30.33 in 30.33 in 30.05 in -
Precipitation: 0.01 in      
Historical Graphs
 
 
Tabular Data for December 02, 2016
Time Temperature Dew Point Pressure Wind Wind Speed Wind Gust Humidity Rainfall Rate (Hourly) solar Conditions
00:04 36.7 °F 34.9 °F 30.05 in WSW 3.5 mph 3.5 mph 93% 0.00 in WeatherDisplay:10.37 W/m2 RA
00:09 36.7 °F 34.9 °F 30.05 in SW 6.9 mph 6.9 mph 93% 0.00 in WeatherDisplay:10.37 W/m2 OVC
00:14 36.6 °F 34.8 °F 30.05 in SW 5.8 mph 6.0 mph 93% 0.00 in WeatherDisplay:10.37 W/m2 OVC
00:19 36.6 °F 34.8 °F 30.05 in WSW 3.5 mph 3.5 mph 93% 0.00 in WeatherDisplay:10.37 W/m2 OVC
00:24 36.5 °F 34.7 °F 30.05 in WNW 6.9 mph 6.9 mph 93% 0.00 in WeatherDisplay:10.37 W/m2 OVC
00:29 36.5 °F 34.7 °F 30.05 in WSW 5.8 mph 5.8 mph 93% 0.00 in WeatherDisplay:10.37 W/m2 OVC
00:34 36.5 °F 34.7 °F 30.05 in SW 3.5 mph 3.5 mph 93% 0.00 in WeatherDisplay:10.37 W/m2 OVC
00:39 36.4 °F 34.6 °F 30.05 in West 3.5 mph 4.2 mph 93% 0.00 in WeatherDisplay:10.37 W/m2 OVC
00:44 36.4 °F 34.6 °F 30.05 in WSW 3.5 mph 3.5 mph 93% 0.00 in WeatherDisplay:10.37 W/m2 OVC
00:49 36.4 °F 34.6 °F 30.05 in West 4.6 mph 4.6 mph 93% 0.00 in WeatherDisplay:10.37 W/m2 OVC
00:54 36.4 °F 34.6 °F 30.05 in WNW 7.0 mph 7.0 mph 93% 0.00 in WeatherDisplay:10.37 W/m2 OVC
00:59 36.4 °F 34.6 °F 30.06 in West 6.9 mph 6.9 mph 93% 0.00 in WeatherDisplay:10.37 W/m2 OVC
01:04 36.4 °F 34.6 °F 30.06 in WNW 3.5 mph 3.5 mph 93% 0.00 in WeatherDisplay:10.37 W/m2 OVC
01:09 36.4 °F 34.6 °F 30.06 in West 3.5 mph 3.5 mph 93% 0.00 in WeatherDisplay:10.37 W/m2 OVC
01:14 36.4 °F 34.6 °F 30.06 in West 5.8 mph 5.8 mph 93% 0.00 in WeatherDisplay:10.37 W/m2 OVC
01:19 36.4 °F 34.8 °F 30.06 in NW 6.9 mph 6.9 mph 94% 0.01 in WeatherDisplay:10.37 W/m2 RA
01:24 36.4 °F 34.8 °F 30.07 in West 3.5 mph 3.5 mph 94% 0.01 in WeatherDisplay:10.37 W/m2 RA
01:29 36.4 °F 34.8 °F 30.07 in WSW 3.5 mph 4.0 mph 94% 0.01 in WeatherDisplay:10.37 W/m2 OVC
01:35 36.4 °F 34.8 °F 30.07 in SW 4.6 mph 4.6 mph 94% 0.01 in WeatherDisplay:10.37 W/m2 OVC
01:39 36.4 °F 34.8 °F 30.07 in WSW 4.6 mph 4.6 mph 94% 0.01 in WeatherDisplay:10.37 W/m2 OVC
01:44 36.4 °F 34.8 °F 30.07 in SW 3.5 mph 3.5 mph 94% 0.01 in WeatherDisplay:10.37 W/m2 OVC
01:49 36.5 °F 34.9 °F 30.07 in West 3.5 mph 4.0 mph 94% 0.01 in WeatherDisplay:10.37 W/m2 OVC
01:54 36.5 °F 34.9 °F 30.07 in West 8.1 mph 8.1 mph 94% 0.01 in WeatherDisplay:10.37 W/m2 OVC
01:59 36.6 °F 35.0 °F 30.07 in SSW 2.3 mph 2.3 mph 94% 0.01 in WeatherDisplay:10.37 W/m2 OVC
02:04 36.6 °F 35.0 °F 30.08 in WSW 5.8 mph 5.9 mph 94% 0.01 in WeatherDisplay:10.37 W/m2 OVC
02:09 36.6 °F 35.0 °F 30.08 in West 3.5 mph 4.1 mph 94% 0.01 in WeatherDisplay:10.37 W/m2 OVC
02:19 36.5 °F 34.9 °F 30.08 in WNW 3.5 mph 4.0 mph 94% 0.00 in WeatherDisplay:10.37 W/m2 OVC
02:25 36.5 °F 34.9 °F 30.08 in West 5.8 mph 5.8 mph 94% 0.00 in WeatherDisplay:10.37 W/m2 OVC
02:30 36.5 °F 34.9 °F 30.08 in West 3.5 mph 3.5 mph 94% 0.00 in WeatherDisplay:10.37 W/m2 OVC
02:35 36.5 °F 34.9 °F 30.08 in WSW 3.5 mph 4.0 mph 94% 0.00 in WeatherDisplay:10.37 W/m2 OVC
02:40 36.5 °F 34.9 °F 30.08 in West 3.5 mph 4.0 mph 94% 0.00 in WeatherDisplay:10.37 W/m2 OVC
02:45 36.6 °F 35.0 °F 30.09 in WSW 4.6 mph 4.6 mph 94% 0.00 in WeatherDisplay:10.37 W/m2 OVC
02:50 36.5 °F 34.9 °F 30.09 in West 3.5 mph 3.5 mph 94% 0.00 in WeatherDisplay:10.37 W/m2 OVC
02:55 36.5 °F 34.9 °F 30.09 in West 2.3 mph 2.3 mph 94% 0.00 in WeatherDisplay:10.37 W/m2 OVC
03:00 36.6 °F 35.0 °F 30.09 in WSW 8.1 mph 8.1 mph 94% 0.00 in WeatherDisplay:10.37 W/m2 OVC
03:05 36.5 °F 34.9 °F 30.09 in WNW 6.9 mph 6.9 mph 94% 0.00 in WeatherDisplay:10.37 W/m2 OVC
03:10 36.4 °F 34.8 °F 30.09 in NW 2.3 mph 6.0 mph 94% 0.00 in WeatherDisplay:10.37 W/m2 OVC
03:15 36.3 °F 34.7 °F 30.09 in West 3.5 mph 4.0 mph 94% 0.00 in WeatherDisplay:10.37 W/m2 OVC
03:20 36.1 °F 34.5 °F 30.09 in West 3.5 mph 4.1 mph 94% 0.00 in WeatherDisplay:10.37 W/m2 OVC
03:25 36.1 °F 34.3 °F 30.09 in WNW 3.5 mph 3.5 mph 93% 0.00 in WeatherDisplay:10.37 W/m2 OVC
03:30 36.0 °F 34.4 °F 30.09 in West 3.5 mph 3.5 mph 94% 0.00 in WeatherDisplay:10.37 W/m2 OVC
03:35 36.0 °F 34.4 °F 30.09 in West 3.5 mph 3.5 mph 94% 0.00 in WeatherDisplay:10.37 W/m2 OVC
03:40 36.1 °F 34.5 °F 30.09 in West 2.3 mph 2.3 mph 94% 0.00 in WeatherDisplay:10.37 W/m2 OVC
03:45 36.1 °F 34.5 °F 30.09 in West 3.5 mph 3.5 mph 94% 0.00 in WeatherDisplay:10.37 W/m2 OVC
03:50 36.1 °F 34.5 °F 30.09 in West 1.2 mph 1.9 mph 94% 0.00 in WeatherDisplay:10.37 W/m2 OVC
03:55 36.1 °F 34.5 °F 30.10 in West 3.5 mph 3.5 mph 94% 0.00 in WeatherDisplay:10.37 W/m2 OVC
04:00 36.2 °F 34.6 °F 30.10 in West 1.2 mph 2.8 mph 94% 0.00 in WeatherDisplay:10.37 W/m2 OVC
04:05 36.2 °F 34.6 °F 30.10 in West 3.5 mph 3.5 mph 94% 0.00 in WeatherDisplay:10.37 W/m2 OVC
04:10 36.3 °F 34.7 °F 30.10 in West 3.5 mph 3.5 mph 94% 0.00 in WeatherDisplay:10.37 W/m2 OVC
04:15 36.4 °F 34.8 °F 30.11 in WNW 3.5 mph 4.0 mph 94% 0.00 in WeatherDisplay:10.37 W/m2 OVC
04:20 36.4 °F 34.8 °F 30.11 in West 3.5 mph 3.5 mph 94% 0.00 in WeatherDisplay:10.37 W/m2 OVC
04:25 36.4 °F 34.8 °F 30.11 in West 3.5 mph 3.5 mph 94% 0.00 in WeatherDisplay:10.37 W/m2 OVC
04:30 36.4 °F 34.8 °F 30.11 in West 3.5 mph 3.5 mph 94% 0.00 in WeatherDisplay:10.37 W/m2 OVC
04:35 36.4 °F 34.8 °F 30.11 in West 5.8 mph 6.0 mph 94% 0.00 in WeatherDisplay:10.37 W/m2 OVC
04:40 36.4 °F 34.8 °F 30.11 in West 1.2 mph 1.2 mph 94% 0.00 in WeatherDisplay:10.37 W/m2 OVC
04:45 36.4 °F 34.6 °F 30.11 in West 4.0 mph 4.0 mph 93% 0.00 in WeatherDisplay:10.37 W/m2 OVC
04:50 36.4 °F 34.6 °F 30.11 in SW 3.5 mph 3.5 mph 93% 0.00 in WeatherDisplay:10.37 W/m2 OVC
04:55 36.4 °F 34.6 °F 30.11 in WNW 3.5 mph 3.5 mph 93% 0.00 in WeatherDisplay:10.37 W/m2 OVC
05:00 36.4 °F 34.6 °F 30.12 in WNW 1.2 mph 3.0 mph 93% 0.00 in WeatherDisplay:10.37 W/m2 OVC
05:05 36.4 °F 34.6 °F 30.12 in SW 5.0 mph 5.0 mph 93% 0.00 in WeatherDisplay:10.37 W/m2 OVC
05:10 36.3 °F 34.5 °F 30.12 in WSW 3.5 mph 3.5 mph 93% 0.00 in WeatherDisplay:10.37 W/m2 OVC
05:20 36.3 °F 34.5 °F 30.12 in West 3.5 mph 4.0 mph 93% 0.00 in WeatherDisplay:10.37 W/m2 OVC
05:25 36.3 °F 34.5 °F 30.12 in WNW 3.5 mph 3.5 mph 93% 0.00 in WeatherDisplay:10.37 W/m2 OVC
05:30 36.2 °F 34.4 °F 30.12 in WSW 3.5 mph 3.5 mph 93% 0.00 in WeatherDisplay:10.37 W/m2 OVC
05:35 36.2 °F 34.4 °F 30.13 in West 3.5 mph 3.5 mph 93% 0.00 in WeatherDisplay:10.37 W/m2 OVC
05:40 36.2 °F 34.4 °F 30.13 in West 3.5 mph 3.5 mph 93% 0.00 in WeatherDisplay:10.37 W/m2 OVC
05:45 36.2 °F 34.4 °F 30.13 in West 3.5 mph 3.5 mph 93% 0.00 in WeatherDisplay:10.37 W/m2 OVC
05:50 36.3 °F 34.5 °F 30.13 in WNW 2.3 mph 2.3 mph 93% 0.00 in WeatherDisplay:10.37 W/m2 OVC
05:55 36.3 °F 34.5 °F 30.13 in West 3.5 mph 3.5 mph 93% 0.00 in WeatherDisplay:10.37 W/m2 OVC
06:00 36.3 °F 34.7 °F 30.13 in West 1.2 mph 2.2 mph 94% 0.00 in WeatherDisplay:10.37 W/m2 OVC
06:05 36.4 °F 34.8 °F 30.13 in WNW 2.3 mph 2.3 mph 94% 0.00 in WeatherDisplay:10.37 W/m2 OVC
06:10 36.4 °F 34.8 °F 30.13 in West 3.5 mph 3.6 mph 94% 0.00 in WeatherDisplay:10.37 W/m2 OVC
06:15 36.4 °F 34.8 °F 30.13 in West 3.5 mph 3.5 mph 94% 0.00 in WeatherDisplay:10.37 W/m2 OVC
06:20 36.4 °F 34.8 °F 30.13 in West 3.5 mph 3.5 mph 94% 0.00 in WeatherDisplay:10.37 W/m2 OVC
06:25 36.4 °F 34.8 °F 30.14 in WNW 2.3 mph 2.3 mph 94% 0.00 in WeatherDisplay:10.37 W/m2 OVC
06:30 36.4 °F 34.8 °F 30.14 in West 2.3 mph 2.3 mph 94% 0.00 in WeatherDisplay:10.37 W/m2 OVC
06:35 36.5 °F 34.9 °F 30.14 in SW 3.5 mph 3.5 mph 94% 0.00 in WeatherDisplay:10.37 W/m2 OVC
06:40 36.5 °F 34.9 °F 30.14 in West 3.5 mph 3.5 mph 94% 0.00 in WeatherDisplay:10.37 W/m2 OVC
06:45 36.5 °F 34.9 °F 30.14 in WSW 3.5 mph 3.5 mph 94% 0.00 in WeatherDisplay:10.37 W/m2 OVC
06:50 36.5 °F 34.9 °F 30.14 in WSW 3.5 mph 3.5 mph 94% 0.00 in WeatherDisplay:10.37 W/m2 OVC
06:55 36.6 °F 35.0 °F 30.15 in West 3.5 mph 3.5 mph 94% 0.00 in WeatherDisplay:10.37 W/m2 OVC
07:00 36.6 °F 35.0 °F 30.15 in West 3.5 mph 3.5 mph 94% 0.00 in WeatherDisplay:10.37 W/m2 OVC
07:05 36.6 °F 35.0 °F 30.15 in WSW 3.5 mph 3.5 mph 94% 0.00 in WeatherDisplay:10.37 W/m2 OVC
07:10 36.6 °F 35.0 °F 30.15 in West 3.5 mph 3.5 mph 94% 0.00 in WeatherDisplay:10.37 W/m2 OVC
07:15 36.6 °F 35.0 °F 30.15 in WSW 3.5 mph 3.5 mph 94% 0.00 in WeatherDisplay:10.37 W/m2 OVC
07:20 36.7 °F 35.1 °F 30.16 in SW 2.3 mph 2.3 mph 94% 0.00 in WeatherDisplay:10.37 W/m2 OVC
07:30 36.7 °F 35.1 °F 30.16 in WNW 3.5 mph 3.5 mph 94% 0.00 in WeatherDisplay:10.37 W/m2 OVC
07:35 36.7 °F 35.1 °F 30.16 in West 3.5 mph 3.5 mph 94% 0.00 in WeatherDisplay:10.37 W/m2 OVC
07:40 36.8 °F 35.2 °F 30.16 in West 3.5 mph 3.5 mph 94% 0.00 in WeatherDisplay:10.37 W/m2 OVC
07:45 36.8 °F 35.2 °F 30.16 in West 3.5 mph 3.7 mph 94% 0.00 in WeatherDisplay:10.37 W/m2 OVC
07:50 36.9 °F 35.3 °F 30.17 in West 2.3 mph 2.3 mph 94% 0.00 in WeatherDisplay:10.37 W/m2 OVC
07:55 37.0 °F 35.4 °F 30.17 in West 3.5 mph 4.3 mph 94% 0.00 in WeatherDisplay:10.37 W/m2 OVC
08:00 37.1 °F 35.5 °F 30.17 in WSW 3.5 mph 3.5 mph 94% 0.00 in WeatherDisplay:10.37 W/m2 OVC
08:05 37.1 °F 35.5 °F 30.17 in WNW 2.3 mph 2.3 mph 94% 0.00 in WeatherDisplay:10.37 W/m2 OVC
08:10 37.2 °F 35.6 °F 30.18 in WSW 4.6 mph 4.6 mph 94% 0.00 in WeatherDisplay:10.37 W/m2 OVC
08:15 37.2 °F 35.6 °F 30.18 in WNW 3.5 mph 3.5 mph 94% 0.00 in WeatherDisplay:10.37 W/m2 OVC
08:20 37.3 °F 35.5 °F 30.18 in NW 5.8 mph 5.8 mph 93% 0.00 in WeatherDisplay:10.37 W/m2 OVC
08:25 37.3 °F 35.5 °F 30.18 in WNW 3.5 mph 3.5 mph 93% 0.00 in WeatherDisplay:10.37 W/m2 OVC
08:30 37.4 °F 35.6 °F 30.18 in West 3.5 mph 3.5 mph 93% 0.00 in WeatherDisplay:10.37 W/m2 OVC
08:35 37.4 °F 35.3 °F 30.17 in West 3.5 mph 3.5 mph 92% 0.00 in WeatherDisplay:10.37 W/m2 OVC
08:40 37.5 °F 35.4 °F 30.18 in West 3.5 mph 3.5 mph 92% 0.00 in WeatherDisplay:10.37 W/m2 OVC
08:45 37.6 °F 35.5 °F 30.18 in WSW 3.5 mph 3.5 mph 92% 0.00 in WeatherDisplay:10.37 W/m2 OVC
08:50 37.7 °F 35.6 °F 30.18 in WSW 3.5 mph 3.5 mph 92% 0.00 in WeatherDisplay:10.37 W/m2 OVC
08:55 37.7 °F 35.3 °F 30.18 in WSW 6.9 mph 7.0 mph 91% 0.00 in WeatherDisplay:10.37 W/m2 OVC
09:00 37.8 °F 35.7 °F 30.18 in WSW 5.8 mph 5.8 mph 92% 0.00 in WeatherDisplay:10.37 W/m2 OVC
09:05 37.8 °F 35.7 °F 30.18 in WSW 3.5 mph 3.5 mph 92% 0.00 in WeatherDisplay:10.37 W/m2 OVC
09:10 37.8 °F 35.4 °F 30.18 in SW 3.5 mph 3.5 mph 91% 0.00 in WeatherDisplay:10.37 W/m2 OVC
09:15 37.9 °F 35.5 °F 30.18 in SSW 3.0 mph 3.0 mph 91% 0.00 in WeatherDisplay:10.37 W/m2 OVC
09:20 38.0 °F 35.6 °F 30.18 in West 5.8 mph 5.8 mph 91% 0.00 in WeatherDisplay:10.37 W/m2 OVC
09:25 38.1 °F 35.7 °F 30.19 in West 3.5 mph 4.0 mph 91% 0.00 in WeatherDisplay:10.37 W/m2 OVC
09:30 38.2 °F 35.8 °F 30.19 in WSW 3.5 mph 4.0 mph 91% 0.00 in WeatherDisplay:10.37 W/m2 OVC
09:35 38.3 °F 35.9 °F 30.19 in WSW 3.5 mph 3.5 mph 91% 0.00 in WeatherDisplay:10.37 W/m2 OVC
09:40 38.4 °F 35.7 °F 30.19 in WSW 3.5 mph 3.6 mph 90% 0.00 in WeatherDisplay:10.37 W/m2 OVC
09:45 38.6 °F 35.9 °F 30.19 in West 3.5 mph 3.7 mph 90% 0.00 in WeatherDisplay:10.37 W/m2 OVC
09:50 38.7 °F 36.0 °F 30.20 in WSW 5.8 mph 6.0 mph 90% 0.00 in WeatherDisplay:10.37 W/m2 OVC
09:55 38.8 °F 36.1 °F 30.20 in West 3.5 mph 5.7 mph 90% 0.00 in WeatherDisplay:10.37 W/m2 OVC
10:00 38.8 °F 36.1 °F 30.20 in WSW 2.3 mph 4.0 mph 90% 0.00 in WeatherDisplay:10.37 W/m2 OVC
10:05 38.9 °F 36.2 °F 30.20 in West 3.5 mph 3.5 mph 90% 0.00 in WeatherDisplay:10.37 W/m2 OVC
10:10 39.1 °F 36.4 °F 30.20 in WNW 5.8 mph 6.0 mph 90% 0.00 in WeatherDisplay:10.37 W/m2 OVC
10:15 39.1 °F 36.4 °F 30.20 in WNW 6.9 mph 7.0 mph 90% 0.00 in WeatherDisplay:10.37 W/m2 OVC
10:20 39.1 °F 36.1 °F 30.20 in West 4.6 mph 5.0 mph 89% 0.00 in WeatherDisplay:10.37 W/m2 OVC
10:25 39.1 °F 36.1 °F 30.20 in West 5.8 mph 6.0 mph 89% 0.00 in WeatherDisplay:10.37 W/m2 OVC
10:30 39.1 °F 36.1 °F 30.20 in SW 5.8 mph 5.8 mph 89% 0.00 in WeatherDisplay:10.37 W/m2 OVC
10:35 39.2 °F 36.2 °F 30.21 in West 4.6 mph 4.6 mph 89% 0.00 in WeatherDisplay:10.37 W/m2 OVC
10:40 39.2 °F 36.2 °F 30.20 in SW 5.0 mph 5.0 mph 89% 0.00 in WeatherDisplay:10.37 W/m2 OVC
10:45 39.3 °F 36.3 °F 30.20 in West 3.5 mph 3.5 mph 89% 0.00 in WeatherDisplay:10.37 W/m2 OVC
10:50 39.3 °F 36.0 °F 30.20 in WSW 5.8 mph 5.8 mph 88% 0.00 in WeatherDisplay:10.37 W/m2 OVC
10:55 39.2 °F 35.9 °F 30.20 in WSW 6.9 mph 7.0 mph 88% 0.00 in WeatherDisplay:10.37 W/m2 OVC
11:00 39.3 °F 36.0 °F 30.20 in West 3.5 mph 3.6 mph 88% 0.00 in WeatherDisplay:10.37 W/m2 OVC
11:05 39.3 °F 36.0 °F 30.20 in WNW 6.9 mph 6.9 mph 88% 0.00 in WeatherDisplay:10.37 W/m2 OVC
11:10 39.2 °F 35.7 °F 30.20 in West 10.4 mph 10.4 mph 87% 0.00 in WeatherDisplay:10.37 W/m2 OVC
11:15 39.3 °F 36.0 °F 30.20 in West 10.0 mph 10.0 mph 88% 0.00 in WeatherDisplay:10.37 W/m2 OVC
11:20 39.3 °F 35.8 °F 30.20 in WNW 10.4 mph 10.4 mph 87% 0.00 in WeatherDisplay:10.37 W/m2 OVC
11:25 39.5 °F 36.2 °F 30.20 in NW 6.9 mph 6.9 mph 88% 0.00 in WeatherDisplay:10.37 W/m2 OVC
11:35 39.7 °F 35.9 °F 30.20 in WSW 6.9 mph 7.0 mph 86% 0.00 in WeatherDisplay:10.37 W/m2 OVC
11:40 39.8 °F 36.0 °F 30.20 in West 3.5 mph 3.7 mph 86% 0.00 in WeatherDisplay:10.37 W/m2 OVC
11:45 40.0 °F 36.2 °F 30.20 in West 8.1 mph 8.1 mph 86% 0.00 in WeatherDisplay:10.37 W/m2 OVC
11:50 40.1 °F 36.2 °F 30.20 in West 8.1 mph 8.1 mph 86% 0.00 in WeatherDisplay:10.37 W/m2 OVC
11:55 40.1 °F 36.0 °F 30.20 in WNW 2.3 mph 4.2 mph 85% 0.00 in WeatherDisplay:10.37 W/m2 OVC
12:00 40.2 °F 36.1 °F 30.20 in West 4.6 mph 4.6 mph 85% 0.00 in WeatherDisplay:10.37 W/m2 OVC
12:05 40.1 °F 35.7 °F 30.21 in WNW 3.5 mph 3.5 mph 84% 0.00 in WeatherDisplay:10.37 W/m2 OVC
12:10 40.1 °F 36.0 °F 30.20 in West 5.8 mph 5.8 mph 85% 0.00 in WeatherDisplay:10.37 W/m2 OVC
12:15 40.0 °F 35.9 °F 30.20 in West 8.1 mph 8.1 mph 85% 0.00 in WeatherDisplay:10.37 W/m2 OVC
12:20 40.0 °F 35.6 °F 30.20 in West 4.6 mph 5.0 mph 84% 0.00 in WeatherDisplay:10.37 W/m2 OVC
12:25 40.0 °F 35.6 °F 30.21 in WNW 10.4 mph 10.4 mph 84% 0.00 in WeatherDisplay:10.37 W/m2 OVC
12:30 40.1 °F 35.7 °F 30.21 in NW 3.5 mph 4.0 mph 84% 0.00 in WeatherDisplay:10.37 W/m2 OVC
12:35 40.0 °F 35.3 °F 30.21 in WNW 3.5 mph 3.5 mph 83% 0.00 in WeatherDisplay:10.37 W/m2 OVC
12:40 39.4 °F 34.7 °F 30.21 in NNW 3.5 mph 3.5 mph 83% 0.00 in WeatherDisplay:10.37 W/m2 OVC
12:45 39.0 °F 34.3 °F 30.22 in NW 3.5 mph 3.5 mph 83% 0.00 in WeatherDisplay:10.37 W/m2 OVC
12:50 38.6 °F 34.2 °F 30.21 in NW 2.3 mph 2.3 mph 84% 0.00 in WeatherDisplay:10.37 W/m2 OVC
12:55 38.2 °F 34.1 °F 30.22 in WNW 2.3 mph 2.3 mph 85% 0.00 in WeatherDisplay:10.37 W/m2 OVC
13:00 38.1 °F 34.3 °F 30.22 in NW 3.5 mph 3.5 mph 86% 0.00 in WeatherDisplay:10.37 W/m2 OVC
13:05 38.0 °F 34.2 °F 30.22 in NNW 3.5 mph 3.5 mph 86% 0.00 in WeatherDisplay:10.37 W/m2 OVC
13:10 38.0 °F 34.2 °F 30.22 in NW 9.2 mph 9.2 mph 86% 0.00 in WeatherDisplay:10.37 W/m2 OVC
13:15 37.8 °F 34.3 °F 30.22 in NNW 4.6 mph 5.0 mph 87% 0.00 in WeatherDisplay:10.37 W/m2 OVC
13:20 37.5 °F 34.3 °F 30.22 in NW 4.6 mph 4.6 mph 88% 0.00 in WeatherDisplay:10.37 W/m2 OVC
13:25 37.3 °F 34.1 °F 30.22 in NW 3.5 mph 3.5 mph 88% 0.00 in WeatherDisplay:10.37 W/m2 OVC
13:30 37.3 °F 34.4 °F 30.23 in NW 3.5 mph 3.5 mph 89% 0.00 in WeatherDisplay:10.37 W/m2 OVC
13:35 37.3 °F 34.4 °F 30.23 in NW 4.6 mph 4.6 mph 89% 0.00 in WeatherDisplay:10.37 W/m2 -DZ
13:40 37.3 °F 34.4 °F 30.23 in NW 3.5 mph 3.6 mph 89% 0.00 in WeatherDisplay:10.37 W/m2 -DZ
13:45 37.4 °F 34.5 °F 30.23 in WNW 2.3 mph 2.3 mph 89% 0.00 in WeatherDisplay:10.37 W/m2 -DZ
13:50 37.4 °F 34.5 °F 30.23 in WNW 3.5 mph 3.5 mph 89% 0.00 in WeatherDisplay:10.37 W/m2 -DZ
13:55 37.5 °F 34.6 °F 30.23 in West 2.3 mph 3.3 mph 89% 0.00 in WeatherDisplay:10.37 W/m2 OVC
14:00 37.7 °F 34.2 °F 30.23 in NW 2.3 mph 2.3 mph 87% 0.00 in WeatherDisplay:10.37 W/m2 OVC
14:05 37.9 °F 34.4 °F 30.23 in NW 1.2 mph 1.2 mph 87% 0.00 in WeatherDisplay:10.37 W/m2 OVC
14:10 38.1 °F 34.6 °F 30.23 in West 2.3 mph 2.8 mph 87% 0.00 in WeatherDisplay:10.37 W/m2 OVC
14:15 38.3 °F 34.5 °F 30.23 in WNW 2.3 mph 2.3 mph 86% 0.00 in WeatherDisplay:10.37 W/m2 OVC
14:20 38.5 °F 34.7 °F 30.24 in WNW 4.6 mph 4.6 mph 86% 0.00 in WeatherDisplay:10.37 W/m2 OVC
14:25 38.6 °F 34.5 °F 30.24 in WNW 3.5 mph 3.5 mph 85% 0.00 in WeatherDisplay:10.37 W/m2 OVC
14:30 38.7 °F 34.6 °F 30.24 in WNW 5.8 mph 5.8 mph 85% 0.00 in WeatherDisplay:10.37 W/m2 OVC
14:35 38.9 °F 34.5 °F 30.24 in WNW 3.5 mph 4.5 mph 84% 0.00 in WeatherDisplay:10.37 W/m2 OVC
14:40 39.0 °F 34.3 °F 30.24 in WNW 3.5 mph 7.0 mph 83% 0.00 in WeatherDisplay:10.37 W/m2 OVC
14:45 39.1 °F 34.4 °F 30.24 in West 3.5 mph 3.9 mph 83% 0.00 in WeatherDisplay:10.37 W/m2 OVC
14:50 39.2 °F 34.5 °F 30.24 in WNW 3.5 mph 3.5 mph 83% 0.00 in WeatherDisplay:10.37 W/m2 OVC
14:55 39.3 °F 34.3 °F 30.24 in WNW 5.8 mph 5.8 mph 82% 0.00 in WeatherDisplay:10.37 W/m2 OVC
15:00 39.3 °F 34.0 °F 30.25 in WNW 4.6 mph 4.7 mph 81% 0.00 in WeatherDisplay:10.37 W/m2 OVC
15:05 39.3 °F 33.6 °F 30.25 in WNW 6.9 mph 6.9 mph 80% 0.00 in WeatherDisplay:10.37 W/m2 OVC
15:10 39.3 °F 33.6 °F 30.25 in WNW 2.3 mph 2.3 mph 80% 0.00 in WeatherDisplay:10.37 W/m2 OVC
15:15 39.3 °F 33.6 °F 30.25 in WNW 2.3 mph 2.3 mph 80% 0.00 in WeatherDisplay:10.37 W/m2 OVC
15:20 39.3 °F 33.3 °F 30.26 in WNW 3.5 mph 7.0 mph 79% 0.00 in WeatherDisplay:10.37 W/m2 OVC
15:25 39.3 °F 33.0 °F 30.26 in West 4.6 mph 5.0 mph 78% 0.00 in WeatherDisplay:10.37 W/m2 OVC
15:30 39.3 °F 33.0 °F 30.26 in WNW 3.5 mph 3.5 mph 78% 0.00 in WeatherDisplay:10.37 W/m2 OVC
15:35 39.3 °F 33.0 °F 30.26 in NW 4.6 mph 4.6 mph 78% 0.00 in WeatherDisplay:10.37 W/m2 OVC
15:40 39.2 °F 32.9 °F 30.26 in NW 3.5 mph 4.1 mph 78% 0.00 in WeatherDisplay:10.37 W/m2 OVC
15:45 39.1 °F 32.8 °F 30.26 in WNW 3.5 mph 4.0 mph 78% 0.00 in WeatherDisplay:10.37 W/m2 OVC
15:50 39.1 °F 33.1 °F 30.26 in NW 8.1 mph 8.1 mph 79% 0.00 in WeatherDisplay:10.37 W/m2 OVC
15:55 39.0 °F 32.7 °F 30.26 in West 3.5 mph 6.6 mph 78% 0.00 in WeatherDisplay:10.37 W/m2 OVC
16:00 38.9 °F 32.9 °F 30.26 in NW 3.5 mph 4.0 mph 79% 0.00 in WeatherDisplay:10.37 W/m2 OVC
16:05 38.9 °F 32.9 °F 30.27 in NW 3.5 mph 3.5 mph 79% 0.00 in WeatherDisplay:10.37 W/m2 OVC
16:10 38.9 °F 32.9 °F 30.27 in WNW 6.9 mph 6.9 mph 79% 0.00 in WeatherDisplay:10.37 W/m2 OVC
16:16 38.8 °F 33.2 °F 30.27 in NW 6.9 mph 6.9 mph 80% 0.00 in WeatherDisplay:10.37 W/m2 OVC
16:20 38.8 °F 33.5 °F 30.27 in West 2.3 mph 3.0 mph 81% 0.00 in WeatherDisplay:10.37 W/m2 OVC
16:25 38.7 °F 33.4 °F 30.27 in West 3.5 mph 3.5 mph 81% 0.00 in WeatherDisplay:10.37 W/m2 OVC
16:30 38.6 °F 33.3 °F 30.27 in WSW 3.5 mph 3.5 mph 81% 0.00 in WeatherDisplay:10.37 W/m2 OVC
16:35 38.4 °F 33.1 °F 30.27 in WNW 3.5 mph 3.9 mph 81% 0.00 in WeatherDisplay:10.37 W/m2 OVC
16:40 38.3 °F 33.0 °F 30.27 in WNW 3.5 mph 3.5 mph 81% 0.00 in WeatherDisplay:10.37 W/m2 OVC
16:45 38.2 °F 32.9 °F 30.27 in WNW 3.5 mph 4.0 mph 81% 0.00 in WeatherDisplay:10.37 W/m2 OVC
16:51 38.1 °F 32.8 °F 30.27 in WNW 3.5 mph 5.9 mph 81% 0.00 in WeatherDisplay:10.37 W/m2 OVC
16:56 38.0 °F 32.7 °F 30.28 in WNW 3.5 mph 3.5 mph 81% 0.00 in WeatherDisplay:10.37 W/m2 OVC
17:01 38.0 °F 32.7 °F 30.28 in West 3.5 mph 3.5 mph 81% 0.00 in WeatherDisplay:10.37 W/m2 OVC
17:06 37.9 °F 32.9 °F 30.27 in WNW 3.5 mph 3.5 mph 82% 0.00 in WeatherDisplay:10.37 W/m2 OVC
17:11 37.9 °F 32.9 °F 30.28 in WNW 5.8 mph 5.8 mph 82% 0.00 in WeatherDisplay:10.37 W/m2 OVC
17:16 37.9 °F 32.9 °F 30.28 in WNW 2.3 mph 6.0 mph 82% 0.00 in WeatherDisplay:10.37 W/m2 OVC
17:21 37.8 °F 32.5 °F 30.28 in WNW 3.5 mph 3.5 mph 81% 0.00 in WeatherDisplay:10.37 W/m2 OVC
17:26 37.8 °F 32.5 °F 30.28 in NW 4.6 mph 6.0 mph 81% 0.00 in WeatherDisplay:10.37 W/m2 OVC
17:31 37.8 °F 32.5 °F 30.28 in WNW 2.3 mph 2.3 mph 81% 0.00 in WeatherDisplay:10.37 W/m2 OVC
17:36 37.8 °F 32.8 °F 30.28 in WNW 2.3 mph 2.3 mph 82% 0.00 in WeatherDisplay:10.37 W/m2 OVC
17:41 37.7 °F 32.7 °F 30.29 in WNW 2.3 mph 2.3 mph 82% 0.00 in WeatherDisplay:10.37 W/m2 OVC
17:46 37.7 °F 32.7 °F 30.29 in WNW 2.3 mph 2.3 mph 82% 0.00 in WeatherDisplay:10.37 W/m2 OVC
17:51 37.6 °F 32.6 °F 30.29 in WNW 3.5 mph 3.5 mph 82% 0.00 in WeatherDisplay:10.37 W/m2 OVC
17:56 37.6 °F 32.6 °F 30.29 in WNW 3.5 mph 3.5 mph 82% 0.00 in WeatherDisplay:10.37 W/m2 OVC
18:01 37.6 °F 32.6 °F 30.30 in NW 3.5 mph 4.0 mph 82% 0.00 in WeatherDisplay:10.37 W/m2 OVC
18:06 37.6 °F 32.3 °F 30.30 in WNW 4.6 mph 4.6 mph 81% 0.00 in WeatherDisplay:10.37 W/m2 OVC
18:11 37.5 °F 31.6 °F 30.30 in WNW 5.8 mph 5.8 mph 79% 0.00 in WeatherDisplay:10.37 W/m2 OVC
18:16 37.5 °F 31.3 °F 30.30 in WNW 2.3 mph 3.0 mph 78% 0.00 in WeatherDisplay:10.37 W/m2 OVC
18:21 37.5 °F 31.6 °F 30.31 in WNW 9.2 mph 9.2 mph 79% 0.00 in WeatherDisplay:10.37 W/m2 OVC
18:26 37.4 °F 30.5 °F 30.30 in WNW 6.9 mph 6.9 mph 76% 0.00 in WeatherDisplay:10.37 W/m2 OVC
18:31 37.4 °F 30.2 °F 30.31 in West 5.8 mph 6.0 mph 75% 0.00 in WeatherDisplay:10.37 W/m2 OVC
18:36 37.4 °F 30.2 °F 30.31 in WNW 3.5 mph 4.0 mph 75% 0.00 in WeatherDisplay:10.37 W/m2 OVC
18:41 37.4 °F 30.2 °F 30.32 in NW 3.5 mph 3.5 mph 75% 0.00 in WeatherDisplay:10.37 W/m2 OVC
18:46 37.3 °F 29.8 °F 30.32 in WNW 3.5 mph 3.5 mph 74% 0.00 in WeatherDisplay:10.37 W/m2 OVC
18:51 37.2 °F 29.7 °F 30.32 in WNW 3.5 mph 5.3 mph 74% 0.00 in WeatherDisplay:10.37 W/m2 OVC
18:56 37.2 °F 30.0 °F 30.32 in NW 3.5 mph 5.1 mph 75% 0.00 in WeatherDisplay:10.37 W/m2 OVC
19:01 37.1 °F 28.9 °F 30.32 in NW 3.5 mph 3.5 mph 72% 0.00 in WeatherDisplay:10.37 W/m2 OVC
19:06 37.0 °F 28.8 °F 30.32 in NNW 4.6 mph 4.6 mph 72% 0.00 in WeatherDisplay:10.37 W/m2 OVC
19:11 36.9 °F 28.7 °F 30.32 in North 3.5 mph 3.5 mph 72% 0.00 in WeatherDisplay:10.37 W/m2 OVC
19:16 36.9 °F 28.7 °F 30.32 in North 3.5 mph 3.5 mph 72% 0.00 in WeatherDisplay:10.37 W/m2 OVC
19:21 36.8 °F 29.0 °F 30.33 in WNW 3.5 mph 3.5 mph 73% 0.00 in WeatherDisplay:10.37 W/m2 OVC
19:26 36.8 °F 29.0 °F 30.33 in WNW 3.5 mph 5.0 mph 73% 0.00 in WeatherDisplay:10.37 W/m2 OVC
19:31 36.7 °F 28.5 °F 30.33 in WNW 2.3 mph 2.3 mph 72% 0.00 in WeatherDisplay:10.37 W/m2 OVC
19:36 36.6 °F 28.8 °F 30.33 in NW 3.5 mph 4.0 mph 73% 0.00 in WeatherDisplay:10.37 W/m2 OVC
19:41 36.6 °F 28.8 °F 30.33 in NW 3.5 mph 3.5 mph 73% 0.00 in WeatherDisplay:10.37 W/m2 OVC
19:46 36.5 °F 28.3 °F 30.33 in WNW 2.3 mph 3.0 mph 72% 0.00 in WeatherDisplay:10.37 W/m2 OVC
19:51 36.5 °F 28.7 °F 30.33 in WNW 5.8 mph 5.8 mph 73% 0.00 in WeatherDisplay:10.37 W/m2 OVC
19:56 36.4 °F 28.6 °F 30.33 in WNW 2.3 mph 3.8 mph 73% 0.00 in WeatherDisplay:10.37 W/m2 OVC
20:01 36.3 °F 28.1 °F 30.33 in NW 3.5 mph 3.5 mph 72% 0.00 in WeatherDisplay:10.37 W/m2 OVC
20:06 36.3 °F 28.1 °F 30.33 in WNW 3.5 mph 3.8 mph 72% 0.00 in WeatherDisplay:10.37 W/m2 OVC
20:11 36.3 °F 28.1 °F 30.33 in WNW 3.5 mph 3.8 mph 72% 0.00 in WeatherDisplay:10.37 W/m2 OVC
20:16 36.0 °F 27.8 °F 30.33 in NW 3.5 mph 3.5 mph 72% 0.00 in WeatherDisplay:10.37 W/m2 OVC
20:21 36.0 °F 27.8 °F 30.33 in NW 3.5 mph 3.5 mph 72% 0.00 in WeatherDisplay:10.37 W/m2 OVC
jolietwx - Weather
Compliments of Weather Underground - 2 mb